Terminal Aerodrome Forecast
Issued by NWS Hastings, NE

Home | Current Version | Previous Version | Text Only | Print | Product List | Glossary On
Versions: 1 2 3 4 5 6 7 8 9 10 11 12
000
FTUS45 KGID 060530
TAFEAR
TAF
KEAR 060530Z 0606/0706 19010KT P6SM SKC WS010/18045KT
     FM061400 19016G21KT P6SM SKC
     FM070200 16008KT P6SM SCT250
      AMD LTD TO CLD VIS AND WIND=

USA.gov is the U.S. government's official web portal to all federal, state and local government web resources and services.